TTPPSVMI

Guest
Details From TTPP - Trinidade Piarco
To SVMI - Caracas Simon Bolivar Intl
Flight Number -
Tags Generated
Created
Modified
Stats Distance 333 nm / 617 km
Max Altitude 0 ft / 0 m
Waypoints 3
Social Downloads 0
Likes 0
Share VATSIM

Download

Looking for another format? Having issues loading an existing format? Contact us
Advertisement - Login to hide

Notes

Generated

Route

TTPP R1536 SVMI

ID Type Via Altitude (ft/m) Position (lat/lon) Dist (leg/tot) Name
O TTPP APT - 0 / 0 10.59533 / -61.35186 - / 0 nm
R1536 FIX - 0 / 0 10.59869 / -66.99768 333 / 333 nm
O SVMI APT - 0 / 0 10.59869 / -66.99768 0 / 333 nm

Altitude Profile

Advertisement - Login to hide

Weather


0- 5 10 15 20 25 30 35+ Temperature / °C

Clouds and Precipitation
Forecast for 2019-03-23 18:00 UTC. Updated 33 minutes ago

Ground ~20,000 ft ~40,000 ft Winds

TTPP

Details ICAO TTPP (POS)
Name Piarco Intl
Region Trinidad and Tobago
Timezone America/Port_of_Spain (UTC-4.0)
Stats Elevation 57 ft / 17 m (AMSL)
Location 10.595300° -61.337200°
Runways 1
Magnetic Variation 15.070° W

METAR

TTPP 231600Z 10014KT 9999 SCT028 32/19 Q1016 NOSIG

Decode

TAF

Not found

Departure Runways

ID Width Length Bearing (true/mag) Surface Threshold Overrun Markings Lighting
10 148 ft / 45 m 10,505 ft / 3,202 m 89.83° / 104.90° ASPHALT 0 ft / 0 m 75 ft / 23 m PREC-APP EDGE THRESHOLD SSALF REIL-OMNI
28 148 ft / 45 m 10,505 ft / 3,202 m 269.83° / 284.90° ASPHALT 0 ft / 0 m 161 ft / 49 m PREC-APP EDGE THRESHOLD REIL-OMNI

SVMI

Details ICAO SVMI (CCS)
Name Simon Bolivar Intl
Region Venezuela
Timezone America/Caracas (UTC-4.0)
Stats Elevation 234 ft / 71 m (AMSL)
Location 10.603200° -66.990300°
Runways 2
Magnetic Variation 12.404° W

METAR

SVMI 231600Z 09003KT 9999 FEW016 27/21 Q1012

Decode

TAF

Not found

Destination Runways

ID Width Length Bearing (true/mag) Surface Threshold Overrun Markings Lighting
09 145 ft / 44 m 9,523 ft / 2,903 m 75.90° / 88.31° ASPHALT 0 ft / 0 m 0 ft / 0 m VISUAL EDGE THRESHOLD REIL-OMNI
10 148 ft / 45 m 11,494 ft / 3,503 m 88.12° / 100.53° ASPHALT 0 ft / 0 m 200 ft / 61 m PREC-APP EDGE THRESHOLD SALS REIL-UNI
27 145 ft / 44 m 9,523 ft / 2,903 m 255.91° / 268.31° ASPHALT 0 ft / 0 m 0 ft / 0 m VISUAL EDGE THRESHOLD REIL-OMNI
28 148 ft / 45 m 11,494 ft / 3,503 m 268.13° / 280.53° ASPHALT 1,588 ft / 484 m 0 ft / 0 m PREC-APP EDGE THRESHOLD REIL-UNI

Approach Navaids

Runway Type Ident Frequency Range Bearing (true/mag) Slope Elevation
10 MM MM - - 88.14° / 100.55 ° - 235 ft / 72 m (AMSL)
10 DME IMIQ 110.10 MHz 18 nm / 33 km - - 235 ft / 72 m (AMSL)
10 LOC-ILS IMIQ 110.10 MHz 18 nm / 33 km 87.90° / 100.31 ° - 235 ft / 72 m (AMSL)
10 GS IMIQ 110.10 MHz 10 nm / 19 km 88.29° / 100.69 ° 3.00° 235 ft / 72 m (AMSL)

Popular Alternatives